Time;durP1;ratioP1;P1;durP2;ratioP2;P2;SDS_P1;SDS_P2;PMS_P1;PMS_P2;Temp;Humidity;BMP_temperature;BMP_pressure;BME280_temperature;BME280_humidity;BME280_pressure;Samples;Min_cycle;Max_cycle;Signal;HPM_P1;HPM_P2
2022/06/09 00:01:55;;;;;;;;;;;15.50;99.90;;;;;;4998919;28;19929;-83
2022/06/09 00:04:24;;;;;;;;;;;15.60;99.90;;;;;;4996544;28;19940;-83
2022/06/09 00:06:56;;;;;;;;;;;15.50;99.90;;;;;;5004478;28;19928;-84
2022/06/09 00:09:26;;;;;;;;;;;15.50;99.90;;;;;;5010840;28;19932;-84
2022/06/09 00:11:52;;;;;;;;;;;15.40;99.90;;;;;;5024668;28;19954;-87
2022/06/09 00:14:18;;;;;;;;;;;15.50;99.90;;;;;;4996779;28;19986;-83
2022/06/09 00:16:43;;;;;;;;;;;15.40;99.90;;;;;;4993596;28;19933;-85
2022/06/09 00:19:10;;;;;;;;;;;15.40;99.90;;;;;;4994121;28;20389;-83
2022/06/09 00:21:36;;;;;;;;;;;15.40;99.90;;;;;;5012056;28;19936;-84
2022/06/09 00:24:03;;;;;;;;;;;15.50;99.90;;;;;;5026750;28;20023;-83
2022/06/09 00:26:29;;;;;;;;;;;15.40;99.90;;;;;;5028344;28;19929;-83
2022/06/09 00:28:54;;;;;;;;;;;15.30;99.90;;;;;;5025173;28;19936;-83
2022/06/09 00:31:20;;;;;;;;;;;15.40;99.90;;;;;;5010369;28;19933;-84
2022/06/09 00:33:46;;;;;;;;;;;15.30;99.90;;;;;;5009834;28;19929;-85
2022/06/09 00:36:12;;;;;;;;;;;15.20;99.90;;;;;;5011526;28;19929;-84
2022/06/09 00:38:37;;;;;;;;;;;15.20;99.90;;;;;;5009225;28;19933;-83
2022/06/09 00:41:03;;;;;;;;;;;15.20;99.90;;;;;;5028245;28;19929;-83
2022/06/09 00:43:32;;;;;;;;;;;15.10;99.90;;;;;;5026856;28;20424;-84
2022/06/09 00:45:58;;;;;;;;;;;15.10;99.90;;;;;;5010495;28;19979;-82
2022/06/09 00:48:27;;;;;;;;;;;15.10;99.90;;;;;;5010788;28;20016;-85
2022/06/09 00:50:56;;;;;;;;;;;14.90;99.90;;;;;;5011452;28;19929;-84
2022/06/09 00:53:23;;;;;;;;;;;14.90;99.90;;;;;;5010584;28;20008;-85
2022/06/09 00:55:49;;;;;;;;;;;15.00;99.90;;;;;;5008271;28;20699;-84
2022/06/09 00:58:17;;;;;;;;;;;14.90;99.90;;;;;;5010940;28;20374;-85
2022/06/09 01:00:55;;;;;;;;;;;14.80;99.90;;;;;;5015687;28;19933;-85
2022/06/09 01:03:23;;;;;;;;;;;15.00;99.90;;;;;;5027318;28;20033;-85
2022/06/09 01:05:51;;;;;;;;;;;14.90;99.90;;;;;;5011502;28;20331;-83
2022/06/09 01:08:16;;;;;;;;;;;14.90;99.90;;;;;;5027861;28;20306;-84
2022/06/09 01:10:42;;;;;;;;;;;14.80;99.90;;;;;;5011167;28;19936;-84
2022/06/09 01:13:07;;;;;;;;;;;15.00;99.90;;;;;;5012506;28;20397;-83
2022/06/09 01:15:41;;;;;;;;;;;14.70;99.90;;;;;;5012144;28;20409;-84
2022/06/09 01:18:09;;;;;;;;;;;14.70;99.90;;;;;;4997854;28;20807;-84
2022/06/09 01:20:57;;;;;;;;;;;14.70;99.90;;;;;;5009845;28;20215;-84
2022/06/09 01:23:26;;;;;;;;;;;14.70;99.90;;;;;;5013099;28;19933;-83
2022/06/09 01:26:10;;;;;;;;;;;14.80;99.90;;;;;;5011119;28;20016;-84
2022/06/09 01:28:45;;;;;;;;;;;14.70;99.90;;;;;;5011594;28;19985;-84
2022/06/09 01:31:31;;;;;;;;;;;14.60;99.90;;;;;;4981590;28;19929;-83
2022/06/09 01:34:03;;;;;;;;;;;14.60;99.90;;;;;;4997866;28;19975;-84
2022/06/09 01:36:33;;;;;;;;;;;14.70;99.90;;;;;;5028770;28;19936;-83
2022/06/09 01:39:03;;;;;;;;;;;14.50;99.90;;;;;;5011544;28;19929;-85
2022/06/09 01:41:29;;;;;;;;;;;14.40;99.90;;;;;;5011316;28;19929;-83
2022/06/09 01:43:55;;;;;;;;;;;14.40;99.90;;;;;;5025755;28;20811;-83
2022/06/09 01:46:24;;;;;;;;;;;14.50;99.90;;;;;;5010722;28;22722;-83
2022/06/09 01:48:51;;;;;;;;;;;14.50;99.90;;;;;;5010773;28;19935;-83
2022/06/09 01:51:18;;;;;;;;;;;14.50;99.90;;;;;;5027914;28;20344;-84
2022/06/09 01:53:46;;;;;;;;;;;14.40;99.90;;;;;;5010571;28;19939;-85
2022/06/09 01:56:15;;;;;;;;;;;14.40;99.90;;;;;;5009749;28;19968;-83
2022/06/09 01:58:45;;;;;;;;;;;14.40;99.90;;;;;;4984584;28;19928;-83
2022/06/09 02:01:30;;;;;;;;;;;14.40;99.90;;;;;;5011763;28;19933;-82
2022/06/09 02:03:57;;;;;;;;;;;14.30;99.90;;;;;;5026398;28;20912;-82
2022/06/09 02:06:23;;;;;;;;;;;14.20;99.90;;;;;;5009495;28;19971;-82
2022/06/09 02:08:48;;;;;;;;;;;14.40;99.90;;;;;;5027681;28;20259;-85
2022/06/09 02:11:14;;;;;;;;;;;14.30;99.90;;;;;;5008242;28;19936;-83
2022/06/09 02:13:45;;;;;;;;;;;14.20;99.90;;;;;;5027713;28;20047;-83
2022/06/09 02:16:16;;;;;;;;;;;14.20;99.90;;;;;;5010950;28;19936;-83
2022/06/09 02:18:45;;;;;;;;;;;14.20;99.90;;;;;;5009837;28;19953;-83
2022/06/09 02:21:19;;;;;;;;;;;14.50;99.90;;;;;;5027672;28;19929;-82
2022/06/09 02:23:46;;;;;;;;;;;14.40;99.90;;;;;;5010233;28;20023;-82
2022/06/09 02:26:11;;;;;;;;;;;14.50;99.90;;;;;;5010320;28;19925;-82
2022/06/09 02:28:37;;;;;;;;;;;14.50;99.90;;;;;;5009196;28;19990;-83
2022/06/09 02:31:03;;;;;;;;;;;14.40;99.90;;;;;;5009283;28;19924;-82
2022/06/09 02:33:28;;;;;;;;;;;14.50;99.90;;;;;;5010578;28;19931;-83
2022/06/09 02:35:54;;;;;;;;;;;14.50;99.90;;;;;;5008795;28;19990;-84
2022/06/09 02:38:20;;;;;;;;;;;14.40;99.90;;;;;;5010114;28;19932;-83
2022/06/09 02:40:48;;;;;;;;;;;14.30;99.90;;;;;;5025092;28;20508;-86
2022/06/09 02:43:14;;;;;;;;;;;14.40;99.90;;;;;;4993055;28;19928;-86
2022/06/09 02:45:40;;;;;;;;;;;14.30;99.90;;;;;;4991704;28;19933;-83
2022/06/09 02:48:06;;;;;;;;;;;14.40;99.90;;;;;;5025149;28;19928;-83
2022/06/09 02:50:32;;;;;;;;;;;14.30;99.90;;;;;;5009798;28;19935;-84
2022/06/09 02:52:58;;;;;;;;;;;14.40;99.90;;;;;;5008606;28;20591;-85
2022/06/09 02:55:24;;;;;;;;;;;14.30;99.90;;;;;;4993028;28;19936;-83
2022/06/09 02:57:50;;;;;;;;;;;14.20;99.90;;;;;;5008497;28;20020;-85
2022/06/09 03:00:15;;;;;;;;;;;14.20;99.90;;;;;;5009699;28;19928;-84
2022/06/09 03:02:42;;;;;;;;;;;14.10;99.90;;;;;;4990296;28;20284;-83
2022/06/09 03:05:08;;;;;;;;;;;14.00;99.90;;;;;;5008506;28;19951;-83
2022/06/09 03:07:33;;;;;;;;;;;14.20;99.90;;;;;;5011309;28;19929;-84
2022/06/09 03:09:59;;;;;;;;;;;14.10;99.90;;;;;;4980452;28;19929;-83
2022/06/09 03:12:25;;;;;;;;;;;14.00;99.90;;;;;;5010148;28;19929;-82
2022/06/09 03:14:50;;;;;;;;;;;14.00;99.90;;;;;;5009796;28;19940;-83
2022/06/09 03:17:16;;;;;;;;;;;13.90;99.90;;;;;;5008386;28;19978;-82
2022/06/09 03:19:41;;;;;;;;;;;13.90;99.90;;;;;;5028001;28;20023;-85
2022/06/09 03:22:07;;;;;;;;;;;13.90;99.90;;;;;;5013277;28;19948;-83
2022/06/09 03:24:33;;;;;;;;;;;13.90;99.90;;;;;;5030992;28;19933;-84
2022/06/09 03:26:59;;;;;;;;;;;13.90;99.90;;;;;;5012152;28;19936;-83
2022/06/09 03:29:24;;;;;;;;;;;13.90;99.90;;;;;;5015768;28;19936;-83
2022/06/09 03:31:50;;;;;;;;;;;13.90;99.90;;;;;;4998522;28;19990;-84
2022/06/09 03:34:18;;;;;;;;;;;13.90;99.90;;;;;;5024935;28;19929;-82
2022/06/09 03:36:44;;;;;;;;;;;13.80;99.90;;;;;;5012855;28;19929;-80
2022/06/09 03:39:10;;;;;;;;;;;13.80;99.90;;;;;;5013146;28;19929;-81
2022/06/09 03:41:35;;;;;;;;;;;13.80;99.90;;;;;;4994636;28;19936;-83
2022/06/09 03:44:01;;;;;;;;;;;13.80;99.90;;;;;;4994456;28;19929;-82
2022/06/09 03:46:27;;;;;;;;;;;13.80;99.90;;;;;;4993724;28;19982;-82
2022/06/09 03:48:53;;;;;;;;;;;13.90;99.90;;;;;;4994109;28;19987;-84
2022/06/09 03:51:19;;;;;;;;;;;13.90;99.90;;;;;;4996683;28;19987;-82
2022/06/09 03:53:44;;;;;;;;;;;13.90;99.90;;;;;;5013723;28;20534;-82
2022/06/09 03:56:15;;;;;;;;;;;14.00;99.90;;;;;;4999682;28;19925;-83
2022/06/09 03:58:41;;;;;;;;;;;14.00;99.90;;;;;;4987844;28;19929;-82
2022/06/09 04:01:07;;;;;;;;;;;13.90;99.90;;;;;;5014664;28;19929;-82
2022/06/09 04:03:32;;;;;;;;;;;14.00;99.90;;;;;;4995718;28;19940;-82
2022/06/09 04:05:58;;;;;;;;;;;13.90;99.90;;;;;;5012479;28;19952;-82
2022/06/09 04:08:24;;;;;;;;;;;14.00;99.90;;;;;;4993775;28;19998;-82
2022/06/09 04:10:49;;;;;;;;;;;13.90;99.90;;;;;;4992853;28;19937;-82
2022/06/09 04:13:15;;;;;;;;;;;14.00;99.90;;;;;;4996155;28;20589;-85
2022/06/09 04:15:42;;;;;;;;;;;14.10;99.90;;;;;;4993966;28;19988;-83
2022/06/09 04:18:08;;;;;;;;;;;14.00;99.90;;;;;;5009871;28;20662;-85
2022/06/09 04:20:34;;;;;;;;;;;14.10;99.90;;;;;;4995748;28;19933;-84
2022/06/09 04:23:00;;;;;;;;;;;14.10;99.90;;;;;;4993494;28;20006;-85
2022/06/09 04:25:25;;;;;;;;;;;14.10;99.90;;;;;;4996321;28;19933;-82
2022/06/09 04:27:51;;;;;;;;;;;14.20;99.90;;;;;;4995010;28;21451;-83
2022/06/09 04:30:18;;;;;;;;;;;14.30;99.90;;;;;;5011700;28;20333;-84
2022/06/09 04:32:44;;;;;;;;;;;14.30;99.90;;;;;;4991857;28;20371;-84
2022/06/09 04:35:12;;;;;;;;;;;14.40;99.90;;;;;;5021333;28;20011;-83
2022/06/09 04:40:23;;;;;;;;;;;14.50;99.90;;;;;;5028639;28;20395;-82
2022/06/09 04:42:49;;;;;;;;;;;15.20;99.90;;;;;;5029004;28;19943;-83
2022/06/09 04:45:14;;;;;;;;;;;15.90;99.90;;;;;;5010407;28;19929;-82
2022/06/09 04:47:40;;;;;;;;;;;16.90;99.90;;;;;;5009755;28;19979;-83
2022/06/09 04:50:07;;;;;;;;;;;17.50;99.90;;;;;;5026049;28;19933;-83
2022/06/09 04:52:33;;;;;;;;;;;17.20;99.90;;;;;;5010674;28;20385;-82
2022/06/09 04:54:59;;;;;;;;;;;16.50;99.90;;;;;;5025412;28;19928;-84
2022/06/09 04:57:24;;;;;;;;;;;16.30;99.90;;;;;;5009789;28;20419;-83
2022/06/09 04:59:50;;;;;;;;;;;16.10;99.90;;;;;;5010994;28;19929;-82
2022/06/09 05:02:16;;;;;;;;;;;15.80;99.90;;;;;;5026609;28;20491;-84
2022/06/09 05:04:41;;;;;;;;;;;15.80;99.90;;;;;;5008187;28;20386;-81
2022/06/09 05:07:08;;;;;;;;;;;15.80;99.90;;;;;;5026000;28;19929;-82
2022/06/09 05:09:33;;;;;;;;;;;15.70;99.90;;;;;;5010341;28;20016;-82
2022/06/09 05:11:59;;;;;;;;;;;15.80;99.90;;;;;;4980587;28;19932;-83
2022/06/09 05:14:25;;;;;;;;;;;15.70;99.90;;;;;;5003804;28;19940;-83
2022/06/09 05:16:50;;;;;;;;;;;15.50;99.90;;;;;;5000281;28;20409;-81
2022/06/09 05:19:16;;;;;;;;;;;15.50;99.90;;;;;;5000226;28;20049;-83
2022/06/09 05:21:41;;;;;;;;;;;15.50;99.90;;;;;;5017346;28;20570;-80
2022/06/09 05:24:07;;;;;;;;;;;15.40;99.90;;;;;;5018024;28;20275;-81
2022/06/09 05:26:32;;;;;;;;;;;15.40;99.90;;;;;;5002056;28;19932;-82
2022/06/09 05:28:59;;;;;;;;;;;15.30;99.90;;;;;;5001199;28;19929;-81
2022/06/09 05:31:24;;;;;;;;;;;15.30;99.90;;;;;;4996656;28;20651;-81
2022/06/09 05:33:50;;;;;;;;;;;15.20;99.90;;;;;;5002767;28;19925;-81
2022/06/09 05:36:16;;;;;;;;;;;15.30;99.90;;;;;;5001645;28;19929;-83
2022/06/09 05:46:54;;;;;;;;;;;15.60;99.90;;;;;;5002592;28;20141;-83
2022/06/09 05:49:20;;;;;;;;;;;15.60;99.90;;;;;;5001266;28;19928;-83
2022/06/09 05:51:49;;;;;;;;;;;15.70;99.90;;;;;;5011134;28;19932;-83
2022/06/09 05:54:15;;;;;;;;;;;15.60;99.90;;;;;;5011891;28;19928;-83
2022/06/09 05:56:41;;;;;;;;;;;15.60;99.90;;;;;;5011686;28;19940;-83
2022/06/09 05:59:07;;;;;;;;;;;15.60;99.90;;;;;;5020363;28;19967;-83
2022/06/09 06:01:32;;;;;;;;;;;15.50;99.90;;;;;;4997491;28;20047;-83
2022/06/09 06:03:58;;;;;;;;;;;15.60;99.90;;;;;;5013768;28;20564;-82
2022/06/09 06:06:33;;;;;;;;;;;15.60;99.90;;;;;;5033304;28;20046;-83
2022/06/09 06:08:59;;;;;;;;;;;15.60;99.90;;;;;;5002915;28;19929;-81
2022/06/09 06:11:25;;;;;;;;;;;15.60;99.90;;;;;;5031993;28;19979;-82
2022/06/09 06:13:50;;;;;;;;;;;15.90;99.90;;;;;;5030166;28;19989;-81
2022/06/09 06:16:16;;;;;;;;;;;15.80;99.90;;;;;;5012379;28;20354;-82
2022/06/09 06:18:42;;;;;;;;;;;15.70;99.90;;;;;;5031145;28;19998;-83
2022/06/09 06:21:07;;;;;;;;;;;15.70;99.90;;;;;;5012930;28;19982;-82
2022/06/09 06:23:33;;;;;;;;;;;15.90;99.90;;;;;;5015351;28;19939;-82
2022/06/09 06:25:59;;;;;;;;;;;16.00;99.90;;;;;;5031767;28;20432;-81
2022/06/09 06:28:25;;;;;;;;;;;16.00;99.90;;;;;;5014491;28;20612;-81
2022/06/09 06:30:51;;;;;;;;;;;16.10;99.90;;;;;;5013295;28;19928;-81
2022/06/09 06:33:17;;;;;;;;;;;16.00;99.90;;;;;;5028909;28;20017;-82
2022/06/09 06:35:43;;;;;;;;;;;16.10;99.90;;;;;;5016962;28;19932;-80
2022/06/09 06:38:08;;;;;;;;;;;16.20;99.90;;;;;;5025474;28;19925;-80
2022/06/09 06:40:35;;;;;;;;;;;16.20;99.90;;;;;;5031394;28;19956;-80
2022/06/09 06:43:00;;;;;;;;;;;16.30;99.90;;;;;;5012588;28;20067;-79
2022/06/09 06:45:27;;;;;;;;;;;16.40;99.90;;;;;;5008755;28;19928;-80
2022/06/09 06:47:54;;;;;;;;;;;16.60;99.90;;;;;;5006523;28;19933;-80
2022/06/09 06:50:19;;;;;;;;;;;16.80;99.90;;;;;;4986592;28;19929;-80
2022/06/09 06:52:45;;;;;;;;;;;17.00;99.90;;;;;;5007268;28;19997;-81
2022/06/09 06:55:12;;;;;;;;;;;17.20;99.90;;;;;;5004883;28;19936;-80
2022/06/09 06:57:38;;;;;;;;;;;17.10;99.90;;;;;;5004467;28;19928;-80
2022/06/09 07:00:05;;;;;;;;;;;17.20;99.90;;;;;;5005876;28;19936;-80
2022/06/09 07:02:30;;;;;;;;;;;17.10;99.90;;;;;;5011677;28;19931;-79
2022/06/09 07:04:56;;;;;;;;;;;17.10;99.90;;;;;;4984827;28;19933;-79
2022/06/09 07:07:21;;;;;;;;;;;17.00;99.90;;;;;;4975639;28;19980;-79
2022/06/09 07:09:47;;;;;;;;;;;17.00;99.90;;;;;;5006288;28;19929;-82
2022/06/09 07:12:13;;;;;;;;;;;17.00;99.90;;;;;;5001210;28;19932;-83
2022/06/09 07:14:38;;;;;;;;;;;17.00;99.90;;;;;;4987278;28;19951;-81
2022/06/09 07:17:05;;;;;;;;;;;17.10;99.90;;;;;;4976378;28;19932;-81
2022/06/09 07:19:30;;;;;;;;;;;17.40;99.90;;;;;;4986718;28;20216;-80
2022/06/09 07:21:56;;;;;;;;;;;17.60;99.90;;;;;;5004730;28;20375;-80
2022/06/09 07:24:21;;;;;;;;;;;18.00;99.90;;;;;;4989030;28;20003;-82
2022/06/09 07:26:47;;;;;;;;;;;17.90;99.90;;;;;;5006452;28;19964;-80
2022/06/09 07:29:13;;;;;;;;;;;17.90;99.90;;;;;;5008510;28;20385;-80
2022/06/09 07:31:39;;;;;;;;;;;18.00;99.90;;;;;;4990816;28;19929;-80
2022/06/09 07:34:05;;;;;;;;;;;17.80;99.90;;;;;;5008593;28;19935;-82
2022/06/09 07:36:30;;;;;;;;;;;18.40;99.90;;;;;;5009374;28;19929;-79
2022/06/09 07:38:56;;;;;;;;;;;18.40;99.90;;;;;;4991626;28;19983;-80
2022/06/09 07:41:22;;;;;;;;;;;18.60;99.90;;;;;;5004238;28;20031;-80
2022/06/09 07:43:48;;;;;;;;;;;18.50;99.90;;;;;;5005982;28;20067;-80
2022/06/09 07:46:14;;;;;;;;;;;18.30;99.90;;;;;;5009888;28;19971;-80
2022/06/09 07:48:40;;;;;;;;;;;18.40;99.90;;;;;;4996655;28;19998;-82
2022/06/09 07:51:06;;;;;;;;;;;18.90;99.90;;;;;;5013443;28;19937;-80
2022/06/09 07:53:31;;;;;;;;;;;19.30;99.90;;;;;;5031735;28;19928;-81
2022/06/09 07:55:57;;;;;;;;;;;19.50;99.90;;;;;;5031526;28;19929;-81
2022/06/09 07:58:22;;;;;;;;;;;19.80;99.90;;;;;;5001194;28;19933;-80
2022/06/09 08:00:48;;;;;;;;;;;20.10;99.90;;;;;;5030027;28;19928;-80
2022/06/09 08:03:15;;;;;;;;;;;20.30;99.90;;;;;;5009992;28;23214;-80
2022/06/09 08:05:41;;;;;;;;;;;20.50;99.90;;;;;;5007721;28;20406;-80
2022/06/09 08:08:07;;;;;;;;;;;20.80;99.90;;;;;;5005684;28;19935;-82
2022/06/09 08:10:33;;;;;;;;;;;21.00;99.90;;;;;;5007443;28;20019;-80
2022/06/09 08:13:00;;;;;;;;;;;21.10;99.90;;;;;;5032664;28;20700;-82
2022/06/09 08:15:27;;;;;;;;;;;20.30;99.90;;;;;;5006390;28;19932;-80
2022/06/09 08:17:53;;;;;;;;;;;20.00;99.90;;;;;;5012265;28;20006;-80
2022/06/09 08:20:19;;;;;;;;;;;20.40;99.90;;;;;;5031614;28;20448;-80
2022/06/09 08:22:44;;;;;;;;;;;20.80;99.90;;;;;;5033242;28;20106;-80
2022/06/09 08:25:12;;;;;;;;;;;21.10;99.90;;;;;;5031054;28;19948;-80
2022/06/09 08:27:38;;;;;;;;;;;21.40;99.90;;;;;;5030525;28;19932;-79
2022/06/09 08:30:05;;;;;;;;;;;21.00;99.90;;;;;;5030782;28;19925;-82
2022/06/09 08:32:30;;;;;;;;;;;20.50;99.90;;;;;;5029730;28;19929;-80
2022/06/09 08:34:58;;;;;;;;;;;20.70;99.90;;;;;;5031251;28;20301;-79
2022/06/09 08:37:25;;;;;;;;;;;21.10;99.90;;;;;;5032834;28;19998;-81
2022/06/09 08:39:50;;;;;;;;;;;21.40;99.90;;;;;;5032534;28;19951;-81
2022/06/09 08:42:16;;;;;;;;;;;21.80;99.90;;;;;;5032724;28;20374;-81
2022/06/09 08:44:52;;;;;;;;;;;21.60;99.90;;;;;;5016038;28;19935;-81
2022/06/09 08:47:24;;;;;;;;;;;21.20;99.90;;;;;;4985318;28;19928;-81
2022/06/09 08:49:52;;;;;;;;;;;21.20;99.90;;;;;;5016351;28;19925;-81
2022/06/09 08:52:28;;;;;;;;;;;21.20;99.90;;;;;;5033220;28;20085;-80
2022/06/09 08:54:55;;;;;;;;;;;21.60;99.90;;;;;;5034300;28;19936;-80
2022/06/09 08:57:30;;;;;;;;;;;22.00;99.90;;;;;;5032614;28;20614;-81
2022/06/09 08:59:57;;;;;;;;;;;21.70;99.90;;;;;;5016936;28;19939;-81
2022/06/09 09:02:32;;;;;;;;;;;21.20;99.90;;;;;;5033171;28;19959;-82
2022/06/09 09:05:12;;;;;;;;;;;20.60;99.90;;;;;;5016812;28;20057;-79
2022/06/09 09:07:39;;;;;;;;;;;20.30;99.90;;;;;;5033326;28;19929;-81
2022/06/09 09:10:07;;;;;;;;;;;19.90;99.90;;;;;;5032596;28;20476;-80
2022/06/09 09:12:34;;;;;;;;;;;19.60;99.90;;;;;;5014071;28;20283;-80
2022/06/09 09:15:06;;;;;;;;;;;19.80;99.90;;;;;;5016518;28;19928;-83
2022/06/09 09:17:34;;;;;;;;;;;20.60;99.90;;;;;;5014078;28;19932;-80
2022/06/09 09:20:03;;;;;;;;;;;21.00;99.90;;;;;;5031908;28;19928;-81
2022/06/09 09:22:45;;;;;;;;;;;21.30;99.90;;;;;;5032676;28;20313;-81
2022/06/09 09:25:19;;;;;;;;;;;21.00;99.90;;;;;;5030344;28;20766;-85
2022/06/09 09:27:54;;;;;;;;;;;21.30;99.90;;;;;;5030956;28;19936;-81
2022/06/09 09:30:27;;;;;;;;;;;21.30;99.90;;;;;;5010816;28;19933;-81
2022/06/09 09:32:54;;;;;;;;;;;21.40;99.90;;;;;;5013550;28;19936;-80
2022/06/09 09:35:20;;;;;;;;;;;21.60;99.90;;;;;;5030367;28;19928;-80
2022/06/09 09:37:48;;;;;;;;;;;21.10;99.90;;;;;;5031524;28;19955;-81
2022/06/09 09:40:23;;;;;;;;;;;20.90;99.90;;;;;;5031929;28;19929;-79
2022/06/09 09:42:50;;;;;;;;;;;21.10;99.90;;;;;;5012932;28;20396;-80
2022/06/09 09:45:16;;;;;;;;;;;21.40;99.90;;;;;;5031718;28;20203;-81
2022/06/09 09:47:42;;;;;;;;;;;21.60;99.90;;;;;;5032396;28;20298;-84
2022/06/09 09:50:18;;;;;;;;;;;21.90;99.90;;;;;;5014257;28;19929;-82
2022/06/09 09:52:44;;;;;;;;;;;22.10;99.90;;;;;;5014437;28;20474;-87
2022/06/09 09:55:25;;;;;;;;;;;22.40;99.90;;;;;;5013436;28;19960;-87
2022/06/09 09:58:07;;;;;;;;;;;22.40;99.90;;;;;;5014746;28;19929;-83
2022/06/09 10:00:34;;;;;;;;;;;22.10;99.90;;;;;;5031521;28;19932;-80
2022/06/09 10:08:37;;;;;;;;;;;22.40;99.90;;;;;;5030932;28;19929;-82
2022/06/09 10:11:53;;;;;;;;;;;22.50;99.90;;;;;;5029220;28;19982;-83
2022/06/09 10:13:50;;;;;;;;;;;22.50;99.90;;;;;;5032155;28;19929;-81
2022/06/09 10:16:17;;;;;;;;;;;22.80;99.90;;;;;;5029647;28;19963;-82
2022/06/09 10:18:44;;;;;;;;;;;22.70;99.90;;;;;;5011141;28;19929;-79
2022/06/09 10:21:11;;;;;;;;;;;22.90;99.90;;;;;;5012996;28;19939;-84
2022/06/09 10:23:55;;;;;;;;;;;22.80;99.90;;;;;;5013193;28;19972;-83
2022/06/09 10:26:21;;;;;;;;;;;22.70;99.90;;;;;;5012111;28;20012;-82
2022/06/09 10:28:46;;;;;;;;;;;22.90;99.90;;;;;;5029654;28;19929;-80
2022/06/09 10:31:31;;;;;;;;;;;22.80;99.90;;;;;;5012641;28;19936;-82
2022/06/09 10:34:02;;;;;;;;;;;22.60;99.90;;;;;;5032223;28;19983;-85
2022/06/09 10:36:33;;;;;;;;;;;22.00;99.90;;;;;;5031934;28;19937;-83
2022/06/09 10:39:01;;;;;;;;;;;21.90;99.90;;;;;;5012319;28;20403;-80
2022/06/09 10:41:36;;;;;;;;;;;22.50;99.90;;;;;;5030350;28;19928;-81
2022/06/09 10:44:05;;;;;;;;;;;22.60;99.90;;;;;;5013333;28;20015;-80
2022/06/09 10:46:37;;;;;;;;;;;22.90;99.90;;;;;;5032607;28;19929;-84
2022/06/09 10:57:38;;;;;;;;;;;22.70;99.90;;;;;;5031232;28;19936;-83
2022/06/09 11:00:04;;;;;;;;;;;22.80;99.90;;;;;;5013230;28;20106;-81
2022/06/09 11:02:31;;;;;;;;;;;23.10;99.90;;;;;;5032371;28;20211;-83
2022/06/09 11:04:57;;;;;;;;;;;23.20;99.90;;;;;;5015637;28;19928;-85
2022/06/09 11:07:32;;;;;;;;;;;23.30;99.90;;;;;;5031823;28;19932;-81
2022/06/09 11:10:13;;;;;;;;;;;23.10;99.90;;;;;;5015591;28;20327;-80
2022/06/09 11:12:49;;;;;;;;;;;23.20;99.90;;;;;;5012299;28;19976;-81
2022/06/09 11:15:14;;;;;;;;;;;23.30;99.90;;;;;;4995478;28;20617;-82
2022/06/09 11:17:40;;;;;;;;;;;23.50;99.90;;;;;;4997625;28;20006;-86
2022/06/09 11:20:18;;;;;;;;;;;23.40;99.90;;;;;;5031898;28;20027;-82
2022/06/09 11:22:53;;;;;;;;;;;23.20;99.90;;;;;;4991042;28;19932;-87
2022/06/09 11:25:31;;;;;;;;;;;23.10;99.90;;;;;;5010448;28;20035;-79
2022/06/09 11:28:12;;;;;;;;;;;22.90;99.90;;;;;;5028865;28;21024;-83
2022/06/09 11:30:56;;;;;;;;;;;22.40;99.90;;;;;;5031291;28;19936;-80
2022/06/09 11:33:24;;;;;;;;;;;22.90;99.90;;;;;;5029266;28;20342;-81
2022/06/09 11:36:05;;;;;;;;;;;22.70;99.90;;;;;;5030378;28;19979;-77
2022/06/09 11:38:33;;;;;;;;;;;22.80;99.90;;;;;;5030198;28;19987;-85
2022/06/09 11:41:08;;;;;;;;;;;23.10;99.90;;;;;;5014327;28;20409;-86
2022/06/09 11:43:40;;;;;;;;;;;22.90;99.90;;;;;;5033828;28;19982;-79
2022/06/09 11:46:10;;;;;;;;;;;22.90;99.90;;;;;;5033484;28;19939;-81
2022/06/09 11:48:35;;;;;;;;;;;23.10;99.90;;;;;;4999709;28;19950;-84
2022/06/09 11:51:01;;;;;;;;;;;23.10;99.90;;;;;;5016167;28;20646;-81
2022/06/09 11:53:29;;;;;;;;;;;23.00;99.90;;;;;;5032923;28;20618;-78
2022/06/09 11:56:13;;;;;;;;;;;23.10;99.90;;;;;;5034946;28;20032;-79
2022/06/09 11:58:44;;;;;;;;;;;23.00;99.90;;;;;;5031929;28;19929;-83
2022/06/09 12:01:18;;;;;;;;;;;22.80;99.90;;;;;;5033087;28;20524;-82
2022/06/09 12:04:06;;;;;;;;;;;23.00;99.90;;;;;;5033548;28;20397;-87
2022/06/09 12:06:38;;;;;;;;;;;23.10;99.90;;;;;;5033685;28;20047;-82
2022/06/09 12:09:10;;;;;;;;;;;23.00;99.90;;;;;;5032922;28;19933;-81
2022/06/09 12:11:51;;;;;;;;;;;23.00;99.90;;;;;;5016043;28;19970;-81
2022/06/09 12:14:18;;;;;;;;;;;23.10;99.90;;;;;;5015678;28;19971;-80
2022/06/09 12:17:10;;;;;;;;;;;23.30;99.90;;;;;;5033162;28;19928;-81
2022/06/09 12:19:50;;;;;;;;;;;23.40;99.90;;;;;;5032689;28;20308;-81
2022/06/09 12:22:31;;;;;;;;;;;23.50;99.90;;;;;;5035279;28;19932;-82
2022/06/09 12:25:03;;;;;;;;;;;23.40;99.90;;;;;;5016994;28;20314;-81
2022/06/09 12:27:35;;;;;;;;;;;23.80;99.90;;;;;;5015040;28;19935;-84
2022/06/09 12:30:00;;;;;;;;;;;23.60;99.90;;;;;;5015493;28;19933;-84
2022/06/09 12:32:29;;;;;;;;;;;23.60;99.90;;;;;;5015350;28;19935;-81
2022/06/09 12:34:55;;;;;;;;;;;22.90;99.90;;;;;;5034342;28;19933;-82
2022/06/09 12:37:33;;;;;;;;;;;22.60;99.90;;;;;;5033386;28;19925;-80
2022/06/09 12:40:01;;;;;;;;;;;22.20;99.90;;;;;;5016401;28;19932;-80
2022/06/09 12:42:32;;;;;;;;;;;23.00;99.90;;;;;;5034201;28;19929;-80
2022/06/09 12:45:14;;;;;;;;;;;23.00;99.90;;;;;;5035696;28;19929;-79
2022/06/09 12:47:51;;;;;;;;;;;22.90;99.90;;;;;;5013197;28;19952;-80
2022/06/09 12:50:40;;;;;;;;;;;22.40;99.90;;;;;;5021005;28;19929;-79
2022/06/09 12:53:07;;;;;;;;;;;22.60;99.90;;;;;;5010606;28;19932;-80
2022/06/09 12:55:34;;;;;;;;;;;22.90;99.90;;;;;;5031150;28;19929;-81
2022/06/09 12:58:09;;;;;;;;;;;22.50;99.90;;;;;;5016848;28;19928;-82
2022/06/09 13:00:37;;;;;;;;;;;22.80;99.90;;;;;;5016147;28;19991;-82
2022/06/09 13:03:12;;;;;;;;;;;23.00;99.90;;;;;;4999326;28;19929;-78
2022/06/09 13:05:38;;;;;;;;;;;23.00;99.90;;;;;;5020093;28;20129;-78
2022/06/09 13:08:11;;;;;;;;;;;23.10;99.90;;;;;;5014199;28;20385;-80
2022/06/09 13:10:38;;;;;;;;;;;23.50;99.90;;;;;;5013697;28;19929;-81
2022/06/09 13:13:04;;;;;;;;;;;22.60;99.90;;;;;;5001870;28;20390;-77
2022/06/09 13:15:37;;;;;;;;;;;22.10;99.90;;;;;;5017622;28;19932;-78
2022/06/09 13:18:05;;;;;;;;;;;22.30;99.90;;;;;;5002356;28;19932;-77
2022/06/09 13:20:31;;;;;;;;;;;22.30;99.90;;;;;;5016328;28;19928;-79
2022/06/09 13:22:56;;;;;;;;;;;21.80;99.90;;;;;;4992282;28;19929;-79
2022/06/09 13:25:24;;;;;;;;;;;21.50;99.90;;;;;;5013550;28;20523;-81
2022/06/09 13:27:50;;;;;;;;;;;21.60;99.90;;;;;;4998230;28;19968;-82
2022/06/09 13:30:19;;;;;;;;;;;21.90;99.90;;;;;;5008959;28;19929;-83
2022/06/09 13:32:46;;;;;;;;;;;22.40;99.90;;;;;;5017759;28;19929;-80
2022/06/09 13:35:30;;;;;;;;;;;22.70;99.90;;;;;;5016829;28;20514;-77
2022/06/09 13:38:00;;;;;;;;;;;22.80;99.90;;;;;;5014469;28;19936;-79
2022/06/09 13:40:26;;;;;;;;;;;23.10;99.90;;;;;;5013868;28;19928;-79
2022/06/09 13:42:54;;;;;;;;;;;23.10;99.90;;;;;;4974749;28;19952;-81
2022/06/09 13:45:20;;;;;;;;;;;23.00;99.90;;;;;;5010327;28;20087;-81
2022/06/09 13:48:04;;;;;;;;;;;22.40;99.90;;;;;;5013308;28;19929;-77
2022/06/09 13:50:36;;;;;;;;;;;22.30;99.90;;;;;;5011056;28;20840;-78
2022/06/09 13:53:20;;;;;;;;;;;22.50;99.90;;;;;;4981471;28;19929;-81
2022/06/09 13:55:46;;;;;;;;;;;22.50;99.90;;;;;;5014860;28;20942;-80
2022/06/09 13:58:12;;;;;;;;;;;22.80;99.90;;;;;;5010268;28;19928;-81
2022/06/09 14:00:40;;;;;;;;;;;22.50;99.90;;;;;;5010114;28;19928;-82
2022/06/09 14:03:17;;;;;;;;;;;22.70;99.90;;;;;;5011330;28;19936;-82
2022/06/09 14:05:45;;;;;;;;;;;22.90;99.90;;;;;;5011164;28;19960;-80
2022/06/09 14:08:11;;;;;;;;;;;23.10;99.90;;;;;;4999137;28;19996;-80
2022/06/09 14:10:37;;;;;;;;;;;23.20;99.90;;;;;;5003145;28;19939;-80
2022/06/09 14:13:04;;;;;;;;;;;23.60;99.90;;;;;;4985584;28;19933;-79
2022/06/09 14:15:31;;;;;;;;;;;23.60;99.90;;;;;;4984933;28;20007;-80
2022/06/09 14:17:57;;;;;;;;;;;23.60;99.90;;;;;;5002697;28;19933;-81
2022/06/09 14:20:25;;;;;;;;;;;23.40;99.90;;;;;;4979666;28;19940;-85
2022/06/09 14:22:51;;;;;;;;;;;23.10;99.90;;;;;;4981949;28;19935;-79
2022/06/09 14:25:16;;;;;;;;;;;23.00;99.90;;;;;;5000756;28;19928;-80
2022/06/09 14:27:42;;;;;;;;;;;23.10;99.90;;;;;;5001052;28;19929;-81
2022/06/09 14:30:10;;;;;;;;;;;23.30;99.90;;;;;;5002502;28;19977;-80
2022/06/09 14:32:36;;;;;;;;;;;23.30;99.90;;;;;;4998663;28;19929;-80
2022/06/09 14:35:03;;;;;;;;;;;23.40;99.90;;;;;;5010457;28;20018;-79
2022/06/09 14:37:28;;;;;;;;;;;22.90;99.90;;;;;;5007556;28;19929;-80
2022/06/09 14:39:54;;;;;;;;;;;22.90;99.90;;;;;;4997969;28;20017;-82
2022/06/09 14:42:20;;;;;;;;;;;23.00;99.90;;;;;;4988144;28;19928;-80
2022/06/09 14:44:46;;;;;;;;;;;23.00;99.90;;;;;;5009944;28;19930;-82
2022/06/09 14:47:13;;;;;;;;;;;22.90;99.90;;;;;;4993790;28;20732;-79
2022/06/09 14:49:39;;;;;;;;;;;22.90;99.90;;;;;;5010930;28;19929;-81